(°C)
16°
17°
17°
17°
17°
17°
16°
(°C)
11°
11°
12°
12°
13°
13°
14°
WNW
WNW
WNW
WNW
WNW
WNW
WNW
(كم/سا)
26-43
26-42
26-40
25-37
23-32
20-28
14-24
(مم)
0
0
0
0
0
0
0
(%)
0
0
0
0
0
0
0

مستوى ارتفاع الشمس

/ 39.3°
sun-icon
UV 2
06:50
19:00
قمر المساء (220°)
20:26
10:25

متر ل50.1°شمال 14.27°شرق (LKPR)

الوقت الشروط درجة الحرارة/
نقطة الندى
رياح مجال رؤية حالة الطقس غيوم الضغط تغيير خام
VFR 16°C / 9°C 290º variable 260º to 320º 12kt >10km - Scattered Clouds 3400ft 1016 No Significant change LKPR 241100Z 29012KT 260V320 9999 SCT034 BKN043 16/09 Q1016 NOSIG
VFR 16°C / 9°C 280º 14kt >10km - Scattered Clouds 3400ft 1016 No Significant change LKPR 241030Z 28014KT 9999 SCT034 BKN044 16/09 Q1016 NOSIG
VFR 16°C / 9°C 280º 16kt >10km - Scattered Clouds 3400ft 1016 No Significant change LKPR 241000Z 28016KT 9999 SCT034 BKN043 16/09 Q1016 NOSIG
VFR 16°C / 10°C 270º variable 240º to 310º 12kt >10km - Scattered Clouds 2700ft 1016 No Significant change LKPR 240930Z 27012KT 240V310 9999 SCT027 BKN036 16/10 Q1016 NOSIG
MVFR 15°C / 10°C 280º variable 250º to 310º 10kt >10km - Broken Clouds 2700ft 1016 No Significant change LKPR 240900Z 28010KT 250V310 9999 BKN027 BKN036 15/10 Q1016 NOSIG
MVFR 15°C / 10°C 290º 10kt >10km - Broken Clouds 2500ft 1016 No Significant change LKPR 240830Z 29010KT 9999 BKN025 BKN030 15/10 Q1016 NOSIG
MVFR 14°C / 9°C 280º 13kt >10km - Scattered Clouds 2400ft 1016 No Significant change LKPR 240800Z 28013KT 9999 SCT024 BKN030 14/09 Q1016 NOSIG
MVFR 15°C / 10°C 280º 14kt >10km - Scattered Clouds 2300ft 1015 No Significant change LKPR 240730Z 28014KT 9999 SCT023 BKN030 15/10 Q1015 NOSIG
VFR 14°C / 10°C 290º 16kt >10km - Few Clouds 2100ft 1015 No Significant change LKPR 240700Z 29016KT 9999 FEW021 SCT030 14/10 Q1015 NOSIG
VFR 14°C / 10°C 290º 10kt >10km - Scattered Clouds 2400ft 1015 No Significant change LKPR 240630Z 29010KT 9999 SCT024 14/10 Q1015 NOSIG
VFR 13°C / 10°C 280º 14kt >10km - Broken Clouds 3200ft 1015 No Significant change LKPR 240600Z 28014KT 9999 BKN032 13/10 Q1015 NOSIG
VFR 12°C / 11°C 280º 7kt >10km - Few Clouds 2400ft 1015 No Significant change LKPR 240530Z 28007KT 9999 FEW024 BKN038 12/11 Q1015 NOSIG
VFR 12°C / 10°C 270º 8kt >10km - Scattered Clouds 2300ft 1015 No Significant change LKPR 240500Z 27008KT 9999 SCT023 BKN032 12/10 Q1015 NOSIG
VFR 11°C / 10°C 290º 10kt >10km - Few Clouds 2000ft 1014 No Significant change LKPR 240430Z 29010KT 9999 FEW020 BKN038 11/10 Q1014 NOSIG
MVFR 12°C / 10°C 300º 13kt >10km Light Rain 1.00mm precipitation Vertical Visibility of 0ft. 1014 No Significant change LKPR 240400Z 30013KT 9999 -RA SCT020 BKN028 12/10 Q1014 NOSIG
MVFR 13°C / 10°C 300º 14kt >10km Light Rain 1.00mm precipitation Vertical Visibility of 0ft. 1014 Becoming: Broken Clouds 2000ft. LKPR 240330Z 30014KT 9999 -RA BKN015 13/10 Q1014 BECMG BKN020
MVFR 13°C / 10°C 310º 12kt >10km - Broken Clouds 1300ft 1014 - LKPR 240314Z 31012KT 9999 BKN013 13/10 Q1014 RMK REG QNH 1008
MVFR 14°C / 11°C 310º 10kt >10km - Few Clouds 1300ft 1014 No Significant change LKPR 240300Z 31010KT 9999 FEW013 BKN025 14/11 Q1014 NOSIG
MVFR 16°C / 10°C 290º 12kt >10km - Overcast 3000ft 1013 No Significant change LKPR 240230Z 29012KT 9999 OVC030 16/10 Q1013 NOSIG
VFR 16°C / 9°C 270º 14kt >10km - Overcast 3400ft 1013 No Significant change LKPR 240200Z 27014KT 9999 OVC034 16/09 Q1013 NOSIG
VFR 16°C / 9°C 270º 14kt >10km - Broken Clouds 3500ft 1013 No Significant change LKPR 240130Z 27014KT 9999 BKN035 16/09 Q1013 NOSIG
VFR 16°C / 9°C 270º 16kt >10km - Broken Clouds 3700ft 1013 No Significant change LKPR 240100Z 27016KT 9999 BKN037 16/09 Q1013 NOSIG
VFR 16°C / 9°C 260º 15kt >10km - Broken Clouds 4600ft 1013 No Significant change LKPR 240030Z 26015KT 9999 BKN046 16/09 Q1013 NOSIG
VFR 16°C / 9°C 250º 13kt >10km - Broken Clouds 4300ft 1013 No Significant change LKPR 240000Z 25013KT 9999 BKN043 16/09 Q1013 NOSIG

VFR

16°C / 9°C

[أكثر]
رياح 290º variable 260º to 320º 12kt
مجال رؤية >10km
حالة الطقس -
غيوم Scattered Clouds 3400ft
الضغط 1016
تغيير No Significant change
خام LKPR 241100Z 29012KT 260V320 9999 SCT034 BKN043 16/09 Q1016 NOSIG

VFR

16°C / 9°C

[أكثر]
رياح 280º 14kt
مجال رؤية >10km
حالة الطقس -
غيوم Scattered Clouds 3400ft
الضغط 1016
تغيير No Significant change
خام LKPR 241030Z 28014KT 9999 SCT034 BKN044 16/09 Q1016 NOSIG

VFR

16°C / 9°C

[أكثر]
رياح 280º 16kt
مجال رؤية >10km
حالة الطقس -
غيوم Scattered Clouds 3400ft
الضغط 1016
تغيير No Significant change
خام LKPR 241000Z 28016KT 9999 SCT034 BKN043 16/09 Q1016 NOSIG

VFR

16°C / 10°C

[أكثر]
رياح 270º variable 240º to 310º 12kt
مجال رؤية >10km
حالة الطقس -
غيوم Scattered Clouds 2700ft
الضغط 1016
تغيير No Significant change
خام LKPR 240930Z 27012KT 240V310 9999 SCT027 BKN036 16/10 Q1016 NOSIG

MVFR

15°C / 10°C

[أكثر]
رياح 280º variable 250º to 310º 10kt
مجال رؤية >10km
حالة الطقس -
غيوم Broken Clouds 2700ft
الضغط 1016
تغيير No Significant change
خام LKPR 240900Z 28010KT 250V310 9999 BKN027 BKN036 15/10 Q1016 NOSIG

MVFR

15°C / 10°C

[أكثر]
رياح 290º 10kt
مجال رؤية >10km
حالة الطقس -
غيوم Broken Clouds 2500ft
الضغط 1016
تغيير No Significant change
خام LKPR 240830Z 29010KT 9999 BKN025 BKN030 15/10 Q1016 NOSIG

MVFR

14°C / 9°C

[أكثر]
رياح 280º 13kt
مجال رؤية >10km
حالة الطقس -
غيوم Scattered Clouds 2400ft
الضغط 1016
تغيير No Significant change
خام LKPR 240800Z 28013KT 9999 SCT024 BKN030 14/09 Q1016 NOSIG

MVFR

15°C / 10°C

[أكثر]
رياح 280º 14kt
مجال رؤية >10km
حالة الطقس -
غيوم Scattered Clouds 2300ft
الضغط 1015
تغيير No Significant change
خام LKPR 240730Z 28014KT 9999 SCT023 BKN030 15/10 Q1015 NOSIG

VFR

14°C / 10°C

[أكثر]
رياح 290º 16kt
مجال رؤية >10km
حالة الطقس -
غيوم Few Clouds 2100ft
الضغط 1015
تغيير No Significant change
خام LKPR 240700Z 29016KT 9999 FEW021 SCT030 14/10 Q1015 NOSIG

VFR

14°C / 10°C

[أكثر]
رياح 290º 10kt
مجال رؤية >10km
حالة الطقس -
غيوم Scattered Clouds 2400ft
الضغط 1015
تغيير No Significant change
خام LKPR 240630Z 29010KT 9999 SCT024 14/10 Q1015 NOSIG

VFR

13°C / 10°C

[أكثر]
رياح 280º 14kt
مجال رؤية >10km
حالة الطقس -
غيوم Broken Clouds 3200ft
الضغط 1015
تغيير No Significant change
خام LKPR 240600Z 28014KT 9999 BKN032 13/10 Q1015 NOSIG

VFR

12°C / 11°C

[أكثر]
رياح 280º 7kt
مجال رؤية >10km
حالة الطقس -
غيوم Few Clouds 2400ft
الضغط 1015
تغيير No Significant change
خام LKPR 240530Z 28007KT 9999 FEW024 BKN038 12/11 Q1015 NOSIG

VFR

12°C / 10°C

[أكثر]
رياح 270º 8kt
مجال رؤية >10km
حالة الطقس -
غيوم Scattered Clouds 2300ft
الضغط 1015
تغيير No Significant change
خام LKPR 240500Z 27008KT 9999 SCT023 BKN032 12/10 Q1015 NOSIG

VFR

11°C / 10°C

[أكثر]
رياح 290º 10kt
مجال رؤية >10km
حالة الطقس -
غيوم Few Clouds 2000ft
الضغط 1014
تغيير No Significant change
خام LKPR 240430Z 29010KT 9999 FEW020 BKN038 11/10 Q1014 NOSIG

MVFR

12°C / 10°C

[أكثر]
رياح 300º 13kt
مجال رؤية >10km
حالة الطقس Light Rain 1.00mm precipitation
غيوم Vertical Visibility of 0ft.
الضغط 1014
تغيير No Significant change
خام LKPR 240400Z 30013KT 9999 -RA SCT020 BKN028 12/10 Q1014 NOSIG

MVFR

13°C / 10°C

[أكثر]
رياح 300º 14kt
مجال رؤية >10km
حالة الطقس Light Rain 1.00mm precipitation
غيوم Vertical Visibility of 0ft.
الضغط 1014
تغيير Becoming: Broken Clouds 2000ft.
خام LKPR 240330Z 30014KT 9999 -RA BKN015 13/10 Q1014 BECMG BKN020

MVFR

13°C / 10°C

[أكثر]
رياح 310º 12kt
مجال رؤية >10km
حالة الطقس -
غيوم Broken Clouds 1300ft
الضغط 1014
تغيير -
خام LKPR 240314Z 31012KT 9999 BKN013 13/10 Q1014 RMK REG QNH 1008

MVFR

14°C / 11°C

[أكثر]
رياح 310º 10kt
مجال رؤية >10km
حالة الطقس -
غيوم Few Clouds 1300ft
الضغط 1014
تغيير No Significant change
خام LKPR 240300Z 31010KT 9999 FEW013 BKN025 14/11 Q1014 NOSIG

MVFR

16°C / 10°C

[أكثر]
رياح 290º 12kt
مجال رؤية >10km
حالة الطقس -
غيوم Overcast 3000ft
الضغط 1013
تغيير No Significant change
خام LKPR 240230Z 29012KT 9999 OVC030 16/10 Q1013 NOSIG

VFR

16°C / 9°C

[أكثر]
رياح 270º 14kt
مجال رؤية >10km
حالة الطقس -
غيوم Overcast 3400ft
الضغط 1013
تغيير No Significant change
خام LKPR 240200Z 27014KT 9999 OVC034 16/09 Q1013 NOSIG

VFR

16°C / 9°C

[أكثر]
رياح 270º 14kt
مجال رؤية >10km
حالة الطقس -
غيوم Broken Clouds 3500ft
الضغط 1013
تغيير No Significant change
خام LKPR 240130Z 27014KT 9999 BKN035 16/09 Q1013 NOSIG

VFR

16°C / 9°C

[أكثر]
رياح 270º 16kt
مجال رؤية >10km
حالة الطقس -
غيوم Broken Clouds 3700ft
الضغط 1013
تغيير No Significant change
خام LKPR 240100Z 27016KT 9999 BKN037 16/09 Q1013 NOSIG

VFR

16°C / 9°C

[أكثر]
رياح 260º 15kt
مجال رؤية >10km
حالة الطقس -
غيوم Broken Clouds 4600ft
الضغط 1013
تغيير No Significant change
خام LKPR 240030Z 26015KT 9999 BKN046 16/09 Q1013 NOSIG

VFR

16°C / 9°C

[أكثر]
رياح 250º 13kt
مجال رؤية >10km
حالة الطقس -
غيوم Broken Clouds 4300ft
الضغط 1013
تغيير No Significant change
خام LKPR 240000Z 25013KT 9999 BKN043 16/09 Q1013 NOSIG

انقر ل50.1°شمال 14.27°شرق (LKPR)

From till


From till Wind 270º 12kt. Visibility 10km or more. Broken Clouds 3000ft.
With 30% probability, Temporarly from till Light Rain . Broken Clouds 1300ft.
Temporarly from till Wind 300º 14kt. Gust 24kt. Broken Clouds 2000ft.
Becoming from till Wind 240º 8kt. Visibility 10km or more. Nil Significant Cloud.

خام: TAF LKPR 240500Z 2406/2512 27012KT 9999 BKN030 TEMPO 2406/2418 30014G24KT BKN020 PROB30 TEMPO 2406/2409 -RA BKN013 BECMG 2418/2420 24008KT CAVOK

صور الأقمار الصناعية الملتقطة و الأمطار حالياً ل50.1°شمال 14.27°شرق

المؤشر يدل على موقع 50.1°شمال 14.27°شرق. [أكثر]

تجمع صورة الأقمار الصناعية في الوقت الفعلي بين الضوء المرئي أثناء النهار والأشعة تحت الحمراء أثناء الليل. لا تبدو الصورة مظلمة ليلاً، لأن الأشعة تحت الحمراء يمكنها الكشف عن الاختلافات في درجة الحرارة. لسوء الحظ ، يصعب التمييز بين السحب المنخفضة والضباب ودرجات حرارة الأرض ، وبالتالي يمكن أن تكون الصور غير مرئية تقريبًا أثناء الليل. يتم تحديث صور الأقمار الصناعية Meteosat الخاصة بأوروبا في الوقت الفعلي كل 5 دقائق، بينما يتم تحديث صور GOES-16 / GOES-17 (أمريكا الشمالية والجنوبية) و Himawari (آسيا) كل 10 دقائق.

يقدر هطول الأمطار من الرادار والأقمار الصناعية. تقديرات هطول الأمطار ليلا من قبل الأقمار الصناعية هي أقل دقة من النهار. اللون البرتقالي يعبر الأماكن حيث تم الكشف عن البرق (أكثر من أوروبا).

حقوق النسخ 2021 EUMETSAT / meteoblue. بيانات البرق مقدمة من nowcast.

رادار وهطول الأمطار التنبؤ الآني ل50.1°شمال 14.27°شرق

رذاذ
ضوء
معتدل
ثقيل
ثقيل جدا
وابل

مؤشر المكان يشير الى 50.1°شمال 14.27°شرق. تظهر في هذه الرسوم المتحركة هطول الامطار بالرادار للساعة الماضية, و توقعات 1h. رذاذ أو تساقط ثلوج خفيف قد يكون غير مرئي للرادار. كثافة هطول الأمطار مرمزة بالألوان وتتراوح من الأزرق الفاتح إلى البرتقالي.